»·PEaware :: N357EJ KPHX-P20

N357EJ :: KPHX-P20

FLIGHT INFORMATION

Flight Status: Arrived
Operator: Privately registered:
United States
More flights under this callsign
Pilot: Eric M. (23425)
Aircraft: BEECH AIRCRAFT BARON
(BE58)
More flights by this aircraft type
Origin: KPHX Phoenix Sky Harbor Intl
United States
Destination: P20 Avi Suquilla
United States
More flights between these airports :: More routes between these airports
Route: BXK PKE
File this flight plan on PilotEdge
Remarks: Alphabet challenge
Altitude:
(Current/Filed)
4,500ft
Speed:
(Current/Filed)
180kts
Departed: 11-Jan-21 04:09 PM
Arrived: 11-Jan-21 04:53 PM
Distance/Time
Traveled:
121nm/0:44
Distance/Time
To Go:
Arrived

Flight Plot

Page will automatically refresh every two minutes.

Flight plan parsing failed; only flown route is shown


Map Options




Map Legend


Flown Route
Filed Route
Departure Airport
Arrival Airport
Navaid (VOR, NDB)
Fix

Horizontal Profiles

Position Reports

Time Latitude Longitude Heading Altitude Ground
Speed
11-Jan-21 15:51 33.427022 -112.024168 266 1136ft 0kts
11-Jan-21 15:52 33.427022 -112.024168 266 1136ft 0kts
11-Jan-21 15:53 33.427022 -112.024168 266 1136ft 0kts
11-Jan-21 15:54 33.427022 -112.024168 266 1136ft 0kts
11-Jan-21 15:55 33.427022 -112.024168 266 1136ft 0kts
11-Jan-21 15:56 33.427022 -112.024168 266 1136ft 0kts
11-Jan-21 15:57 33.427022 -112.024168 266 1136ft 0kts
11-Jan-21 15:58 33.427022 -112.024168 266 1136ft 0kts
11-Jan-21 15:59 33.427022 -112.024168 266 1136ft 0kts
11-Jan-21 16:00 33.427022 -112.024168 266 1136ft 0kts
11-Jan-21 16:01 33.427022 -112.024168 266 1136ft 0kts
11-Jan-21 16:02 33.427022 -112.024168 266 1136ft 0kts
11-Jan-21 16:03 33.427022 -112.024168 266 1136ft 0kts
11-Jan-21 16:04 33.427754 -112.025703 270 1136ft 13kts
11-Jan-21 16:05 33.427894 -112.026829 335 1136ft 0kts
11-Jan-21 16:06 33.427894 -112.026829 335 1136ft 0kts
11-Jan-21 16:07 33.427894 -112.026829 335 1136ft 0kts
11-Jan-21 16:08 33.428853 -112.021514 90 1136ft 96kts
11-Jan-21 16:09 33.414871 -111.986715 184 2378ft 152kts
11-Jan-21 16:10 33.364553 -111.986655 176 3579ft 164kts
11-Jan-21 16:11 33.316084 -112.010233 224 4109ft 179kts
11-Jan-21 16:12 33.276216 -112.058668 228 4594ft 185kts
11-Jan-21 16:13 33.247853 -112.121352 281 4441ft 193kts
11-Jan-21 16:14 33.272574 -112.185978 303 4210ft 200kts
11-Jan-21 16:15 33.304378 -112.245730 304 4522ft 190kts
11-Jan-21 16:16 33.334805 -112.309332 299 4449ft 194kts
11-Jan-21 16:17 33.363802 -112.373667 299 4522ft 192kts
11-Jan-21 16:18 33.354227 -112.442391 265 4540ft 191kts
11-Jan-21 16:20 33.349901 -112.514987 271 4496ft 193kts
11-Jan-21 16:21 33.351304 -112.587933 271 4503ft 192kts
11-Jan-21 16:22 33.361247 -112.656669 315 4477ft 189kts
11-Jan-21 16:23 33.397171 -112.714036 302 4571ft 188kts
11-Jan-21 16:24 33.427844 -112.773711 299 4914ft 183kts
11-Jan-21 16:25 33.455742 -112.832066 295 5486ft 169kts
11-Jan-21 16:26 33.476864 -112.889984 294 6025ft 166kts
11-Jan-21 16:27 33.497693 -112.947992 295 6477ft 171kts
11-Jan-21 16:28 33.519835 -113.009823 295 6480ft 179kts
11-Jan-21 16:29 33.541676 -113.070995 294 6470ft 178kts
11-Jan-21 16:30 33.563726 -113.132881 294 6473ft 178kts
11-Jan-21 16:31 33.585443 -113.193956 294 6473ft 178kts
11-Jan-21 16:32 33.607263 -113.255463 293 6473ft 179kts
11-Jan-21 16:33 33.629284 -113.317690 294 6472ft 179kts
11-Jan-21 16:33 33.647872 -113.370257 294 6435ft 180kts
11-Jan-21 16:35 33.673807 -113.443732 294 6426ft 179kts
11-Jan-21 16:36 33.695719 -113.505932 294 6427ft 179kts
11-Jan-21 16:37 33.717722 -113.568539 295 6430ft 179kts
11-Jan-21 16:37 33.736166 -113.621130 295 6457ft 178kts
11-Jan-21 16:39 33.761605 -113.693792 295 6466ft 180kts
11-Jan-21 16:39 33.779942 -113.746269 296 6480ft 182kts
11-Jan-21 16:41 33.806274 -113.821709 296 6477ft 183kts
11-Jan-21 16:41 33.824339 -113.873592 296 6106ft 180kts
11-Jan-21 16:42 33.846333 -113.936902 296 5391ft 180kts
11-Jan-21 16:43 33.868164 -113.999854 295 4694ft 178kts
11-Jan-21 16:44 33.889595 -114.061774 295 4010ft 177kts
11-Jan-21 16:45 33.910887 -114.123412 295 3339ft 177kts
11-Jan-21 16:46 33.932424 -114.185844 296 2670ft 177kts
11-Jan-21 16:47 33.980401 -114.207243 346 2409ft 156kts
11-Jan-21 16:48 34.024714 -114.220758 343 2869ft 144kts
11-Jan-21 16:49 34.066151 -114.245919 329 2575ft 148kts
11-Jan-21 16:50 34.101275 -114.272609 327 1649ft 121kts
11-Jan-21 16:51 34.131879 -114.278666 20 747ft 102kts
11-Jan-21 16:52 34.148959 -114.268338 28 456ft 19kts
11-Jan-21 16:53 34.151994 -114.269686 297 456ft 9kts
11-Jan-21 16:54 34.153155 -114.271314 116 456ft 1kts
11-Jan-21 16:55 34.153155 -114.271312 115 456ft 0kts

Navigation Log

Ident Type
Flight plan parsing failed, navigation log unavailable